sensor_id;sensor_type;location;lat;lon;timestamp;pressure;altitude;pressure_sealevel;temperature;humidity
22181;BME280;11256;50.830;12.834;2023-02-18T00:04:01;97887.88;;;10.78;75.23
22181;BME280;11256;50.830;12.834;2023-02-18T00:09:02;97878.41;;;10.71;75.53
22181;BME280;11256;50.830;12.834;2023-02-18T00:14:06;97883.84;;;10.71;75.80
22181;BME280;11256;50.830;12.834;2023-02-18T00:19:10;97902.53;;;10.72;75.45
22181;BME280;11256;50.830;12.834;2023-02-18T00:24:13;97902.81;;;10.66;75.55
22181;BME280;11256;50.830;12.834;2023-02-18T00:29:14;97879.53;;;10.60;75.74
22181;BME280;11256;50.830;12.834;2023-02-18T00:34:15;97899.56;;;10.69;75.86
22181;BME280;11256;50.830;12.834;2023-02-18T00:39:15;97889.84;;;10.63;75.38
22181;BME280;11256;50.830;12.834;2023-02-18T00:44:16;97890.09;;;10.61;75.42
22181;BME280;11256;50.830;12.834;2023-02-18T00:49:16;97898.78;;;10.58;75.49
22181;BME280;11256;50.830;12.834;2023-02-18T00:54:16;97891.47;;;10.54;75.45
22181;BME280;11256;50.830;12.834;2023-02-18T00:59:17;97886.56;;;10.56;75.82
22181;BME280;11256;50.830;12.834;2023-02-18T01:04:17;97891.22;;;10.55;76.04
22181;BME280;11256;50.830;12.834;2023-02-18T01:09:17;97890.13;;;10.51;75.59
22181;BME280;11256;50.830;12.834;2023-02-18T01:14:18;97875.22;;;10.44;76.15
22181;BME280;11256;50.830;12.834;2023-02-18T01:19:18;97893.09;;;10.50;75.81
22181;BME280;11256;50.830;12.834;2023-02-18T01:24:18;97891.47;;;10.49;75.88
22181;BME280;11256;50.830;12.834;2023-02-18T01:29:19;97884.72;;;10.46;76.43
22181;BME280;11256;50.830;12.834;2023-02-18T01:34:19;97886.34;;;10.47;76.50
22181;BME280;11256;50.830;12.834;2023-02-18T01:39:19;97893.13;;;10.40;76.75
22181;BME280;11256;50.830;12.834;2023-02-18T01:44:25;97877.69;;;10.40;76.22
22181;BME280;11256;50.830;12.834;2023-02-18T01:49:29;97883.94;;;10.41;76.51
22181;BME280;11256;50.830;12.834;2023-02-18T01:54:39;97876.34;;;10.38;76.14
22181;BME280;11256;50.830;12.834;2023-02-18T01:59:44;97872.28;;;10.35;75.96
22181;BME280;11256;50.830;12.834;2023-02-18T02:04:46;97884.47;;;10.38;75.92
22181;BME280;11256;50.830;12.834;2023-02-18T02:09:49;97879.03;;;10.38;76.50
22181;BME280;11256;50.830;12.834;2023-02-18T02:31:06;97908.31;;;10.26;76.43
22181;BME280;11256;50.830;12.834;2023-02-18T02:36:19;97885.03;;;10.20;76.35
22181;BME280;11256;50.830;12.834;2023-02-18T02:46:50;97886.13;;;10.19;76.45
22181;BME280;11256;50.830;12.834;2023-02-18T03:02:31;97892.09;;;10.16;76.19
22181;BME280;11256;50.830;12.834;2023-02-18T03:07:57;97881.25;;;10.11;76.34
22181;BME280;11256;50.830;12.834;2023-02-18T03:13:14;97884.53;;;10.08;76.38
22181;BME280;11256;50.830;12.834;2023-02-18T03:18:34;97879.63;;;10.05;76.01
22181;BME280;11256;50.830;12.834;2023-02-18T03:23:55;97885.06;;;10.05;76.33
22181;BME280;11256;50.830;12.834;2023-02-18T03:29:00;97885.28;;;10.03;76.37
22181;BME280;11256;50.830;12.834;2023-02-18T03:34:12;97891.25;;;9.95;76.07
22181;BME280;11256;50.830;12.834;2023-02-18T03:39:18;97875.81;;;9.91;76.33
22181;BME280;11256;50.830;12.834;2023-02-18T03:44:20;97864.97;;;9.96;76.22
22181;BME280;11256;50.830;12.834;2023-02-18T03:49:21;97852.53;;;9.90;76.13
22181;BME280;11256;50.830;12.834;2023-02-18T03:54:22;97856.06;;;10.00;76.54
22181;BME280;11256;50.830;12.834;2023-02-18T03:59:22;97856.34;;;9.94;76.56
22181;BME280;11256;50.830;12.834;2023-02-18T04:04:22;97874.19;;;9.90;76.98
22181;BME280;11256;50.830;12.834;2023-02-18T04:09:23;97879.59;;;9.95;77.08
22181;BME280;11256;50.830;12.834;2023-02-18T04:14:23;97875.81;;;9.91;77.54
22181;BME280;11256;50.830;12.834;2023-02-18T04:19:23;97866.91;;;9.90;77.27
22181;BME280;11256;50.830;12.834;2023-02-18T04:24:24;97870.44;;;9.86;77.77
22181;BME280;11256;50.830;12.834;2023-02-18T04:29:24;97865.53;;;9.83;77.33
22181;BME280;11256;50.830;12.834;2023-02-18T04:34:25;97875.00;;;9.85;77.44
22181;BME280;11256;50.830;12.834;2023-02-18T04:39:25;97861.22;;;9.87;77.69
22181;BME280;11256;50.830;12.834;2023-02-18T04:44:25;97846.34;;;9.84;77.47
22181;BME280;11256;50.830;12.834;2023-02-18T04:49:26;97862.56;;;9.84;77.37
22181;BME280;11256;50.830;12.834;2023-02-18T04:54:26;97864.44;;;9.84;77.40
22181;BME280;11256;50.830;12.834;2023-02-18T04:59:26;97862.56;;;9.84;77.14
22181;BME280;11256;50.830;12.834;2023-02-18T05:04:27;97870.13;;;9.82;77.65
22181;BME280;11256;50.830;12.834;2023-02-18T05:09:27;97857.69;;;9.81;77.30
22181;BME280;11256;50.830;12.834;2023-02-18T05:14:27;97848.22;;;9.79;77.18
22181;BME280;11256;50.830;12.834;2023-02-18T05:19:28;97835.78;;;9.78;77.28
22181;BME280;11256;50.830;12.834;2023-02-18T05:24:28;97818.19;;;9.80;77.38
22181;BME280;11256;50.830;12.834;2023-02-18T05:29:28;97806.53;;;9.80;77.33
22181;BME280;11256;50.830;12.834;2023-02-18T05:34:29;97795.19;;;9.78;77.12
22181;BME280;11256;50.830;12.834;2023-02-18T05:39:29;97797.34;;;9.81;77.10
22181;BME280;11256;50.830;12.834;2023-02-18T05:44:29;97774.34;;;9.83;77.53
22181;BME280;11256;50.830;12.834;2023-02-18T05:49:31;97786.53;;;9.81;77.50
22181;BME280;11256;50.830;12.834;2023-02-18T05:54:33;97772.44;;;9.79;77.44
22181;BME280;11256;50.830;12.834;2023-02-18T05:59:33;97758.38;;;9.77;77.11
22181;BME280;11256;50.830;12.834;2023-02-18T06:04:34;97748.66;;;9.76;77.06
22181;BME280;11256;50.830;12.834;2023-02-18T06:09:34;97749.75;;;9.75;77.15
22181;BME280;11256;50.830;12.834;2023-02-18T06:14:34;97741.63;;;9.75;77.22
22181;BME280;11256;50.830;12.834;2023-02-18T06:19:35;97722.97;;;9.68;77.23
22181;BME280;11256;50.830;12.834;2023-02-18T06:24:35;97730.81;;;9.70;77.25
22181;BME280;11256;50.830;12.834;2023-02-18T06:29:36;97728.38;;;9.68;77.11
22181;BME280;11256;50.830;12.834;2023-02-18T06:34:37;97736.47;;;9.73;77.39
22181;BME280;11256;50.830;12.834;2023-02-18T06:39:38;97718.06;;;9.65;77.04
22181;BME280;11256;50.830;12.834;2023-02-18T06:44:38;97736.47;;;9.73;77.14
22181;BME280;11256;50.830;12.834;2023-02-18T06:49:39;97724.31;;;9.71;77.58
22181;BME280;11256;50.830;12.834;2023-02-18T06:54:39;97715.09;;;9.72;77.41
22181;BME280;11256;50.830;12.834;2023-02-18T06:59:39;97712.66;;;9.75;77.63
22181;BME280;11256;50.830;12.834;2023-02-18T07:04:40;97711.31;;;9.73;77.71
22181;BME280;11256;50.830;12.834;2023-02-18T07:09:40;97698.34;;;9.70;77.73
22181;BME280;11256;50.830;12.834;2023-02-18T07:14:40;97690.75;;;9.72;77.62
22181;BME280;11256;50.830;12.834;2023-02-18T07:19:41;97686.41;;;9.76;77.31
22181;BME280;11256;50.830;12.834;2023-02-18T07:24:41;97662.88;;;9.71;77.93
22181;BME280;11256;50.830;12.834;2023-02-18T07:29:42;97671.22;;;9.85;78.11
22181;BME280;11256;50.830;12.834;2023-02-18T07:34:42;97654.44;;;9.83;78.54
22181;BME280;11256;50.830;12.834;2023-02-18T07:39:43;97650.63;;;9.89;78.68
22181;BME280;11256;50.830;12.834;2023-02-18T07:44:43;97652.22;;;9.95;79.07
22181;BME280;11256;50.830;12.834;2023-02-18T07:49:44;97641.38;;;10.00;79.00
22181;BME280;11256;50.830;12.834;2023-02-18T07:54:45;97651.09;;;10.11;78.97
22181;BME280;11256;50.830;12.834;2023-02-18T07:59:45;97655.13;;;10.18;79.39
22181;BME280;11256;50.830;12.834;2023-02-18T08:04:46;97633.75;;;10.17;80.26
22181;BME280;11256;50.830;12.834;2023-02-18T08:09:46;97644.78;;;10.30;79.62
22181;BME280;11256;50.830;12.834;2023-02-18T08:14:49;97633.63;;;10.37;79.16
22181;BME280;11256;50.830;12.834;2023-02-18T08:19:50;97627.66;;;10.40;79.30
22181;BME280;11256;50.830;12.834;2023-02-18T08:24:53;97628.41;;;10.50;79.36
22181;BME280;11256;50.830;12.834;2023-02-18T08:29:54;97615.06;;;10.59;79.58
22181;BME280;11256;50.830;12.834;2023-02-18T08:34:55;97608.44;;;10.75;79.83
22181;BME280;11256;50.830;12.834;2023-02-18T08:39:55;97607.88;;;10.78;80.06
22181;BME280;11256;50.830;12.834;2023-02-18T08:44:56;97593.69;;;10.91;79.84
22181;BME280;11256;50.830;12.834;2023-02-18T08:49:56;97601.22;;;10.94;79.36
22181;BME280;11256;50.830;12.834;2023-02-18T08:54:56;97601.81;;;10.91;78.98
22181;BME280;11256;50.830;12.834;2023-02-18T08:59:57;97591.47;;;10.93;79.09
22181;BME280;11256;50.830;12.834;2023-02-18T09:04:57;97590.63;;;10.97;79.45
22181;BME280;11256;50.830;12.834;2023-02-18T09:09:57;97589.22;;;11.00;79.13
22181;BME280;11256;50.830;12.834;2023-02-18T09:14:58;97586.84;;;10.98;79.48
22181;BME280;11256;50.830;12.834;2023-02-18T09:19:59;97571.44;;;10.89;79.57
22181;BME280;11256;50.830;12.834;2023-02-18T09:25:00;97579.53;;;10.94;79.25
22181;BME280;11256;50.830;12.834;2023-02-18T09:30:00;97582.19;;;10.99;78.67
22181;BME280;11256;50.830;12.834;2023-02-18T09:35:02;97562.94;;;11.00;79.04
22181;BME280;11256;50.830;12.834;2023-02-18T09:40:04;97554.47;;;11.07;79.29
22181;BME280;11256;50.830;12.834;2023-02-18T09:45:06;97533.16;;;10.95;80.01
22181;BME280;11256;50.830;12.834;2023-02-18T09:50:28;97536.66;;;11.01;79.20
22181;BME280;11256;50.830;12.834;2023-02-18T09:55:32;97523.03;;;11.06;79.05
22181;BME280;11256;50.830;12.834;2023-02-18T10:00:36;97527.09;;;11.08;79.27
22181;BME280;11256;50.830;12.834;2023-02-18T10:05:41;97518.06;;;11.13;79.42
22181;BME280;11256;50.830;12.834;2023-02-18T10:10:44;97512.06;;;11.16;79.00
22181;BME280;11256;50.830;12.834;2023-02-18T10:15:45;97495.50;;;11.17;80.05
22181;BME280;11256;50.830;12.834;2023-02-18T10:20:46;97484.44;;;11.14;79.17
22181;BME280;11256;50.830;12.834;2023-02-18T10:25:47;97493.03;;;11.21;80.38
22181;BME280;11256;50.830;12.834;2023-02-18T10:30:56;97471.81;;;11.28;79.54
22181;BME280;11256;50.830;12.834;2023-02-18T10:41:25;97469.91;;;11.47;79.38
22181;BME280;11256;50.830;12.834;2023-02-18T10:52:13;97448.91;;;11.57;79.30
22181;BME280;11256;50.830;12.834;2023-02-18T10:57:21;97461.00;;;11.65;79.84
22181;BME280;11256;50.830;12.834;2023-02-18T11:02:25;97452.00;;;11.69;79.31
22181;BME280;11256;50.830;12.834;2023-02-18T11:07:32;97460.31;;;11.78;79.01
22181;BME280;11256;50.830;12.834;2023-02-18T11:12:57;97440.19;;;11.79;78.36
22181;BME280;11256;50.830;12.834;2023-02-18T11:18:19;97437.84;;;11.72;78.44
22181;BME280;11256;50.830;12.834;2023-02-18T11:23:25;97427.72;;;11.78;78.22
22181;BME280;11256;50.830;12.834;2023-02-18T11:28:41;97426.13;;;11.77;78.00
22181;BME280;11256;50.830;12.834;2023-02-18T11:33:47;97434.00;;;11.73;77.65
22181;BME280;11256;50.830;12.834;2023-02-18T11:39:02;97434.75;;;11.79;76.96
22181;BME280;11256;50.830;12.834;2023-02-18T11:44:07;97428.84;;;11.77;76.81
22181;BME280;11256;50.830;12.834;2023-02-18T11:49:21;97420.84;;;11.67;76.13
22181;BME280;11256;50.830;12.834;2023-02-18T11:54:25;97432.69;;;11.71;76.19
22181;BME280;11256;50.830;12.834;2023-02-18T11:59:28;97419.50;;;11.64;75.65
22181;BME280;11256;50.830;12.834;2023-02-18T12:09:38;97404.66;;;11.57;74.99
22181;BME280;11256;50.830;12.834;2023-02-18T12:14:39;97387.81;;;11.60;74.77
22181;BME280;11256;50.830;12.834;2023-02-18T12:20:05;97393.59;;;11.53;74.35
22181;BME280;11256;50.830;12.834;2023-02-18T12:30:58;97397.16;;;11.49;73.57
22181;BME280;11256;50.830;12.834;2023-02-18T12:41:52;97416.47;;;11.47;73.68
22181;BME280;11256;50.830;12.834;2023-02-18T12:57:42;97404.38;;;11.40;73.06
22181;BME280;11256;50.830;12.834;2023-02-18T13:03:10;97394.69;;;11.34;73.05
22181;BME280;11256;50.830;12.834;2023-02-18T13:14:00;97378.91;;;11.36;72.27
22181;BME280;11256;50.830;12.834;2023-02-18T13:19:31;97379.41;;;11.38;72.11
22181;BME280;11256;50.830;12.834;2023-02-18T13:24:35;97380.44;;;11.42;71.69
22181;BME280;11256;50.830;12.834;2023-02-18T13:29:43;97388.44;;;11.33;71.79
22181;BME280;11256;50.830;12.834;2023-02-18T13:40:18;97389.47;;;11.37;71.70
22181;BME280;11256;50.830;12.834;2023-02-18T13:45:26;97381.19;;;11.29;71.22
22181;BME280;11256;50.830;12.834;2023-02-18T13:50:30;97392.59;;;11.26;71.01
22181;BME280;11256;50.830;12.834;2023-02-18T13:55:45;97387.56;;;11.19;70.99
22181;BME280;11256;50.830;12.834;2023-02-18T14:00:53;97395.38;;;11.21;70.77
22181;BME280;11256;50.830;12.834;2023-02-18T14:05:55;97387.63;;;11.14;70.82
22181;BME280;11256;50.830;12.834;2023-02-18T14:16:11;97386.09;;;11.08;71.00
22181;BME280;11256;50.830;12.834;2023-02-18T14:31:36;97393.78;;;10.96;70.66
22181;BME280;11256;50.830;12.834;2023-02-18T14:37:18;97401.75;;;10.88;70.59
22181;BME280;11256;50.830;12.834;2023-02-18T14:42:38;97413.16;;;10.90;70.60
22181;BME280;11256;50.830;12.834;2023-02-18T14:48:01;97426.69;;;10.90;70.70
22181;BME280;11256;50.830;12.834;2023-02-18T14:53:11;97424.28;;;10.88;70.67
22181;BME280;11256;50.830;12.834;2023-02-18T14:58:28;97444.34;;;10.87;70.89
22181;BME280;11256;50.830;12.834;2023-02-18T15:03:29;97437.28;;;10.86;70.58
22181;BME280;11256;50.830;12.834;2023-02-18T15:08:35;97442.97;;;10.90;70.73
22181;BME280;11256;50.830;12.834;2023-02-18T15:13:41;97453.31;;;10.83;70.65
22181;BME280;11256;50.830;12.834;2023-02-18T15:18:52;97450.34;;;10.84;70.49
22181;BME280;11256;50.830;12.834;2023-02-18T15:23:53;97453.88;;;10.85;70.70
22181;BME280;11256;50.830;12.834;2023-02-18T15:29:01;97446.88;;;10.79;70.80
22181;BME280;11256;50.830;12.834;2023-02-18T15:39:23;97440.38;;;10.80;70.53
22181;BME280;11256;50.830;12.834;2023-02-18T15:44:26;97458.75;;;10.83;70.90
22181;BME280;11256;50.830;12.834;2023-02-18T15:49:28;97451.94;;;10.85;70.89
22181;BME280;11256;50.830;12.834;2023-02-18T15:54:29;97453.09;;;10.79;71.06
22181;BME280;11256;50.830;12.834;2023-02-18T15:59:34;97468.56;;;10.79;70.94
22181;BME280;11256;50.830;12.834;2023-02-18T16:04:40;97468.03;;;10.77;71.18
22181;BME280;11256;50.830;12.834;2023-02-18T16:09:41;97496.22;;;10.76;71.28
22181;BME280;11256;50.830;12.834;2023-02-18T16:14:45;97494.03;;;10.78;71.29
22181;BME280;11256;50.830;12.834;2023-02-18T16:20:51;97511.97;;;10.74;71.37
22181;BME280;11256;50.830;12.834;2023-02-18T16:25:26;97514.38;;;10.75;71.68
22181;BME280;11256;50.830;12.834;2023-02-18T16:30:31;97516.84;;;10.72;71.98
22181;BME280;11256;50.830;12.834;2023-02-18T16:35:32;97512.03;;;10.69;71.95
22181;BME280;11256;50.830;12.834;2023-02-18T16:40:37;97506.09;;;10.62;72.26
22181;BME280;11256;50.830;12.834;2023-02-18T16:46:04;97531.03;;;10.64;72.20
22181;BME280;11256;50.830;12.834;2023-02-18T16:51:16;97543.47;;;10.65;72.21
22181;BME280;11256;50.830;12.834;2023-02-18T16:56:26;97542.44;;;10.61;72.16
22181;BME280;11256;50.830;12.834;2023-02-18T17:01:34;97542.78;;;10.54;72.71
22181;BME280;11256;50.830;12.834;2023-02-18T17:06:41;97544.66;;;10.54;72.52
22181;BME280;11256;50.830;12.834;2023-02-18T17:11:46;97554.16;;;10.51;72.49
22181;BME280;11256;50.830;12.834;2023-02-18T17:16:49;97561.16;;;10.57;72.84
22181;BME280;11256;50.830;12.834;2023-02-18T17:21:50;97572.28;;;10.56;72.88
22181;BME280;11256;50.830;12.834;2023-02-18T17:26:50;97565.25;;;10.55;72.99
22181;BME280;11256;50.830;12.834;2023-02-18T17:31:53;97578.28;;;10.53;73.35
22181;BME280;11256;50.830;12.834;2023-02-18T17:36:54;97588.03;;;10.49;73.08
22181;BME280;11256;50.830;12.834;2023-02-18T17:41:54;97583.22;;;10.46;73.13
22181;BME280;11256;50.830;12.834;2023-02-18T17:46:54;97588.66;;;10.41;72.87
22181;BME280;11256;50.830;12.834;2023-02-18T17:51:55;97608.66;;;10.45;72.92
22181;BME280;11256;50.830;12.834;2023-02-18T17:56:55;97617.34;;;10.47;73.14
22181;BME280;11256;50.830;12.834;2023-02-18T18:01:55;97637.38;;;10.46;73.32
22181;BME280;11256;50.830;12.834;2023-02-18T18:06:56;97620.63;;;10.39;73.63
22181;BME280;11256;50.830;12.834;2023-02-18T18:11:56;97625.72;;;10.45;74.00
22181;BME280;11256;50.830;12.834;2023-02-18T18:16:56;97638.47;;;10.40;73.75
22181;BME280;11256;50.830;12.834;2023-02-18T18:21:57;97641.78;;;10.32;74.23
22181;BME280;11256;50.830;12.834;2023-02-18T18:26:57;97634.19;;;10.34;74.24
22181;BME280;11256;50.830;12.834;2023-02-18T18:31:57;97648.81;;;10.33;74.67
22181;BME280;11256;50.830;12.834;2023-02-18T18:36:58;97636.94;;;10.29;74.77
22181;BME280;11256;50.830;12.834;2023-02-18T18:41:58;97633.69;;;10.27;74.98
22181;BME280;11256;50.830;12.834;2023-02-18T18:47:01;97631.81;;;10.27;74.88
22181;BME280;11256;50.830;12.834;2023-02-18T18:52:01;97625.84;;;10.25;75.03
22181;BME280;11256;50.830;12.834;2023-02-18T18:57:02;97618.06;;;10.14;75.12
22181;BME280;11256;50.830;12.834;2023-02-18T19:02:02;97613.22;;;10.11;75.13
22181;BME280;11256;50.830;12.834;2023-02-18T19:07:03;97616.19;;;10.09;75.02
22181;BME280;11256;50.830;12.834;2023-02-18T19:12:03;97614.31;;;10.05;75.50
22181;BME280;11256;50.830;12.834;2023-02-18T19:17:03;97617.53;;;10.07;75.57
22181;BME280;11256;50.830;12.834;2023-02-18T19:22:04;97631.66;;;9.99;75.83
22181;BME280;11256;50.830;12.834;2023-02-18T19:27:04;97635.19;;;9.94;76.12
22181;BME280;11256;50.830;12.834;2023-02-18T19:32:04;97620.88;;;9.89;76.04
22181;BME280;11256;50.830;12.834;2023-02-18T19:37:05;97653.84;;;9.96;75.97
22181;BME280;11256;50.830;12.834;2023-02-18T19:42:05;97654.94;;;9.95;76.18
22181;BME280;11256;50.830;12.834;2023-02-18T19:47:06;97635.22;;;9.84;76.57
22181;BME280;11256;50.830;12.834;2023-02-18T19:52:06;97656.31;;;9.92;76.53
22181;BME280;11256;50.830;12.834;2023-02-18T19:57:06;97650.09;;;9.87;76.97
22181;BME280;11256;50.830;12.834;2023-02-18T20:02:18;97669.06;;;9.87;76.94
22181;BME280;11256;50.830;12.834;2023-02-18T20:07:20;97658.22;;;9.87;77.49
22181;BME280;11256;50.830;12.834;2023-02-18T20:12:21;97663.34;;;9.88;76.61
22181;BME280;11256;50.830;12.834;2023-02-18T20:17:21;97655.75;;;9.95;76.91
22181;BME280;11256;50.830;12.834;2023-02-18T20:22:22;97650.91;;;9.87;76.89
22181;BME280;11256;50.830;12.834;2023-02-18T20:27:22;97654.44;;;9.83;77.08
22181;BME280;11256;50.830;12.834;2023-02-18T20:32:22;97655.53;;;9.87;77.09
22181;BME280;11256;50.830;12.834;2023-02-18T20:37:23;97659.88;;;9.83;77.57
22181;BME280;11256;50.830;12.834;2023-02-18T20:42:23;97659.88;;;9.83;77.59
22181;BME280;11256;50.830;12.834;2023-02-18T20:47:23;97661.72;;;9.87;77.49
22181;BME280;11256;50.830;12.834;2023-02-18T20:52:24;97655.81;;;9.80;77.32
22181;BME280;11256;50.830;12.834;2023-02-18T20:57:24;97656.06;;;9.84;77.80
22181;BME280;11256;50.830;12.834;2023-02-18T21:02:25;97660.41;;;9.80;77.24
22181;BME280;11256;50.830;12.834;2023-02-18T21:07:26;97655.28;;;9.83;77.45
22181;BME280;11256;50.830;12.834;2023-02-18T21:12:26;97661.47;;;9.84;77.74
22181;BME280;11256;50.830;12.834;2023-02-18T21:17:26;97645.56;;;9.72;78.06
22181;BME280;11256;50.830;12.834;2023-02-18T21:22:27;97637.72;;;9.76;78.03
22181;BME280;11256;50.830;12.834;2023-02-18T21:27:27;97631.47;;;9.70;78.32
22181;BME280;11256;50.830;12.834;2023-02-18T21:32:27;97637.72;;;9.76;78.08
22181;BME280;11256;50.830;12.834;2023-02-18T21:37:27;97639.84;;;9.74;77.84
22181;BME280;11256;50.830;12.834;2023-02-18T21:42:29;97649.06;;;9.73;77.83
22181;BME280;11256;50.830;12.834;2023-02-18T21:47:29;97633.94;;;9.67;77.76
22181;BME280;11256;50.830;12.834;2023-02-18T21:52:30;97638.53;;;9.66;77.81
22181;BME280;11256;50.830;12.834;2023-02-18T21:57:31;97631.25;;;9.62;77.98
22181;BME280;11256;50.830;12.834;2023-02-18T22:02:32;97639.34;;;9.67;77.66
22181;BME280;11256;50.830;12.834;2023-02-18T22:07:33;97633.41;;;9.70;78.24
22181;BME280;11256;50.830;12.834;2023-02-18T22:12:33;97619.91;;;9.60;77.65
22181;BME280;11256;50.830;12.834;2023-02-18T22:17:33;97633.94;;;9.62;77.80
22181;BME280;11256;50.830;12.834;2023-02-18T22:22:34;97632.59;;;9.64;77.79
22181;BME280;11256;50.830;12.834;2023-02-18T22:27:34;97628.28;;;9.63;77.87
22181;BME280;11256;50.830;12.834;2023-02-18T22:32:35;97628.03;;;9.60;77.95
22181;BME280;11256;50.830;12.834;2023-02-18T22:37:35;97612.31;;;9.57;78.18
22181;BME280;11256;50.830;12.834;2023-02-18T22:42:35;97620.44;;;9.57;78.16
22181;BME280;11256;50.830;12.834;2023-02-18T22:47:35;97609.09;;;9.55;78.49
22181;BME280;11256;50.830;12.834;2023-02-18T22:52:36;97599.06;;;9.55;78.27
22181;BME280;11256;50.830;12.834;2023-02-18T22:57:36;97592.63;;;9.51;78.46
22181;BME280;11256;50.830;12.834;2023-02-18T23:02:37;97595.59;;;9.50;78.19
22181;BME280;11256;50.830;12.834;2023-02-18T23:07:37;97606.66;;;9.48;77.94
22181;BME280;11256;50.830;12.834;2023-02-18T23:12:38;97611.00;;;9.49;78.44
22181;BME280;11256;50.830;12.834;2023-02-18T23:17:38;97619.66;;;9.51;77.95
22181;BME280;11256;50.830;12.834;2023-02-18T23:22:38;97611.31;;;9.43;77.82
22181;BME280;11256;50.830;12.834;2023-02-18T23:27:40;97619.41;;;9.48;77.65
22181;BME280;11256;50.830;12.834;2023-02-18T23:32:41;97624.81;;;9.43;77.70
22181;BME280;11256;50.830;12.834;2023-02-18T23:37:41;97626.97;;;9.46;77.85
22181;BME280;11256;50.830;12.834;2023-02-18T23:43:00;97601.03;;;9.40;77.91
22181;BME280;11256;50.830;12.834;2023-02-18T23:48:00;97584.28;;;9.33;78.00
22181;BME280;11256;50.830;12.834;2023-02-18T23:53:01;97599.41;;;9.44;77.48
22181;BME280;11256;50.830;12.834;2023-02-18T23:58:01;97593.72;;;9.40;77.56
